Main page
METAR-TAF:

METAR-TAF

Airports :

Odessa International Airport

Odessa, Ukraine

latitude: 46-26N, longitude: 030-46E, elevation: 42 m

Current weather observation

The report was made 25 minutes ago, at 22:00 UTC
Calm wind
Temperature 17°C
Humidity 77%
Pressure 1016 hPa
Visibility 10 km or more
no clouds below 1500 m and no cumulonimbus

METAR: UKOO 182200Z 00000MPS CAVOK 17/13 Q1016 R16/090060 NOSIG

Time: 01:25 (22:25 UTC)

Forecast

The report was made 5 hours and 15 minutes ago, at 17:10 UTC
Forecast valid from 18 at 18 UTC to 19 at 18 UTC
Wind 6 kt from the West
Visibility: 2100 m
Scattered clouds at a height of 700 ft
Scattered clouds at a height of 2000 ft, Cumulonimbus.
mist
Becoming
from 19 at 04 UTC to 19 at 06 UTC
Wind 6 kt from the East with gusts up to 16 kt
Visibility: 6000 m

TAF: UKOO 181710Z 1818/1918 26003MPS 2100 BR SCT007 SCT020CB TX28/1912Z TN15/1902Z BECMG 1904/1906 10003G08MPS 6000 NSW

Weather observations and forecasts of more than 4000 airports (METAR and TAF reports).

The available stations are represented by yellow and red dots on the map.

Hover mouse over dot to see the name of the station.

Then click to see weather observations and forecasts.

To change the map : click on the green buttons with a black cross to zoom in, on the green button with a dash to zoom out, or on the green arrows for adjacent maps.


METAR-TAF: